This is the latest recevied weather packets stored in our database for station/object OM1PU-6. If no packets are shown the sender has not sent any weather packets the latest 10 day(s).
| Time | Temp. | Humidity | Pressure | Rain* | Wind** | Luminosity | Snow |
|---|---|---|---|---|---|---|---|
| 1788687661 | 23.89° C | 44% | 1013.1 hPa | 0 mm | - | - | - |
| 1788686761 | 23.33° C | 45% | 1022.7 hPa | 0 mm | - | - | - |
| 1788685861 | 22.78° C | 46% | 1022.9 hPa | 0 mm | - | - | - |
| 1788684961 | 23.33° C | 45% | 1022.7 hPa | 0 mm | - | - | - |
| 1788684061 | 23.33° C | 46% | 1022.6 hPa | 0 mm | - | - | - |
| 1788683160 | 23.33° C | 45% | 1022.7 hPa | 0 mm | - | - | - |
| 1788682261 | 22.78° C | 48% | 1022.7 hPa | 0 mm | - | - | - |
| 1788679562 | 21.67° C | 51% | 1022.5 hPa | 0 mm | - | - | - |
| 1788678661 | 21.11° C | 53% | 1022.2 hPa | 0 mm | - | - | - |
| 1788675961 | 18.33° C | 58% | 1021.8 hPa | 0 mm | - | - | - |
| 1788673263 | 17.78° C | 62% | 1021.5 hPa | 0 mm | - | - | - |
| 1788672361 | 17.22° C | 62% | 1021.6 hPa | 0 mm | - | - | - |
| 1788671461 | 16.67° C | 63% | 1021.3 hPa | 0 mm | - | - | - |
| 1788670561 | 16.67° C | 65% | 1021.3 hPa | 0 mm | - | - | - |
| 1788669660 | 16.11° C | 66% | 1021 hPa | 0 mm | - | - | - |
| 1788668761 | 16.11° C | 65% | 1021 hPa | 0 mm | - | - | - |
| 1788667861 | 16.67° C | 64% | 1020.8 hPa | 0 mm | - | - | - |
| 1788666960 | 16.67° C | 63% | 1020.8 hPa | 0 mm | - | - | - |
| 1788666061 | 16.67° C | 65% | 1020.7 hPa | 0 mm | - | - | - |
| 1788665160 | 16.67° C | 66% | 1020.4 hPa | 0 mm | - | - | - |
| 1788664261 | 16.67° C | 66% | 1020.2 hPa | 0 mm | - | - | - |
| 1788662461 | 17.22° C | 65% | 1020.2 hPa | 0 mm | - | - | - |
| 1788661561 | 16.67° C | 66% | 1020.2 hPa | 0 mm | - | - | - |
| 1788660660 | 16.67° C | 65% | 1020.1 hPa | 0 mm | - | - | - |
| 1788654361 | 18.33° C | 63% | 1019.3 hPa | 0 mm | - | - | - |
* Rain latest 24 hours (hover to see other rain measurements)
** Current wind speed in m/s (hover to see current wind gust speed)